createdAt,value
2022-10-21T00:00:47.887Z,100412.59
2022-10-21T00:03:17.522Z,100413.41
2022-10-21T00:05:46.772Z,100411.53
2022-10-21T00:08:18.611Z,100403.06
2022-10-21T00:10:57.343Z,100412.50
2022-10-21T00:13:26.169Z,100412.44
2022-10-21T00:15:59.307Z,100408.12
2022-10-21T00:18:27.580Z,100413.25
2022-10-21T00:21:07.158Z,100409.03
2022-10-21T00:23:36.844Z,100402.94
2022-10-21T00:26:07.023Z,100400.38
2022-10-21T00:28:38.773Z,100392.56
2022-10-21T00:31:08.084Z,100393.34
2022-10-21T00:33:39.551Z,100386.47
2022-10-21T00:36:08.911Z,100387.34
2022-10-21T00:38:38.456Z,100384.75
2022-10-21T00:41:08.850Z,100378.72
2022-10-21T00:43:52.557Z,100372.72
2022-10-21T00:46:25.737Z,100367.53
2022-10-21T00:48:55.613Z,100368.38
2022-10-21T00:51:27.875Z,100372.63
2022-10-21T00:53:59.563Z,100362.28
2022-10-21T00:56:31.199Z,100364.88
2022-10-21T00:59:01.306Z,100359.78
2022-10-21T01:01:30.587Z,100364.97
2022-10-21T01:04:01.428Z,100358.87
2022-10-21T01:06:30.394Z,100359.69
2022-10-21T01:08:59.234Z,100357.06
2022-10-21T01:11:30.722Z,100351.88
2022-10-21T01:16:47.298Z,100350.25
2022-10-21T01:19:24.438Z,100353.59
2022-10-21T01:21:57.356Z,100345.91
2022-10-21T01:24:41.730Z,100344.94
2022-10-21T01:27:14.396Z,100345.06
2022-10-21T01:29:50.658Z,100346.69
2022-10-21T01:32:34.349Z,100345.84
2022-10-21T01:35:09.864Z,100343.22
2022-10-21T01:37:41.321Z,100335.37
2022-10-21T01:40:10.630Z,100338.03
2022-10-21T01:42:40.947Z,100328.50
2022-10-21T01:45:11.139Z,100315.72
2022-10-21T01:47:40.990Z,100312.19
2022-10-21T01:50:13.039Z,100312.84
2022-10-21T01:52:42.049Z,100312.97
2022-10-21T01:55:16.108Z,100315.50
2022-10-21T01:57:45.357Z,100320.59
2022-10-21T02:00:15.612Z,100318.13
2022-10-21T02:02:44.953Z,100326.75
2022-10-21T02:05:19.352Z,100324.19
2022-10-21T02:07:49.785Z,100317.34
2022-10-21T02:10:30.355Z,100313.88
2022-10-21T02:13:01.363Z,100316.59
2022-10-21T02:15:30.241Z,100324.31
2022-10-21T02:18:02.061Z,100319.03
2022-10-21T02:20:33.222Z,100338.13
2022-10-21T02:23:03.042Z,100340.62
2022-10-21T02:25:33.089Z,100336.31
2022-10-21T02:28:03.880Z,100316.50
2022-10-21T02:30:36.411Z,100324.28
2022-10-21T02:33:05.806Z,100332.03
2022-10-21T02:35:37.293Z,100334.59
2022-10-21T02:38:07.527Z,100338.94
2022-10-21T02:40:37.971Z,100336.28
2022-10-21T02:43:10.919Z,100330.94
2022-10-21T02:45:39.463Z,100315.56
2022-10-21T02:48:08.408Z,100312.25
2022-10-21T02:50:38.324Z,100327.75
2022-10-21T02:53:11.746Z,100325.09
2022-10-21T02:55:40.329Z,100319.13
2022-10-21T03:00:39.334Z,100313.91
2022-10-21T03:03:12.606Z,100316.50
2022-10-21T03:05:42.778Z,100320.72
2022-10-21T03:08:14.885Z,100324.22
2022-10-21T03:10:43.729Z,100330.06
2022-10-21T03:13:15.049Z,100330.12
2022-10-21T03:15:44.225Z,100329.28
2022-10-21T03:18:18.420Z,100317.25
2022-10-21T03:20:51.284Z,100312.94
2022-10-21T03:23:30.951Z,100322.37
2022-10-21T03:26:01.037Z,100319.81
2022-10-21T03:28:30.496Z,100318.03
2022-10-21T03:31:02.865Z,100308.66
2022-10-21T03:33:31.344Z,100306.84
2022-10-21T03:36:04.273Z,100289.62
2022-10-21T03:38:32.786Z,100295.75
2022-10-21T03:41:01.891Z,100298.28
2022-10-21T03:43:32.679Z,100303.50
2022-10-21T03:46:10.498Z,100299.91
2022-10-21T03:48:38.734Z,100293.91
2022-10-21T03:51:10.863Z,100291.37
2022-10-21T03:53:43.278Z,100284.53
2022-10-21T03:56:19.715Z,100281.69
2022-10-21T03:58:48.818Z,100285.34
2022-10-21T04:01:18.528Z,100284.44
2022-10-21T04:03:54.578Z,100278.47
2022-10-21T04:06:26.687Z,100275.16
2022-10-21T04:09:05.706Z,100272.25
2022-10-21T04:11:35.331Z,100265.62
2022-10-21T04:14:03.899Z,100269.03
2022-10-21T04:16:43.138Z,100267.31
2022-10-21T04:19:13.087Z,100265.62
2022-10-21T04:21:49.470Z,100263.09
2022-10-21T04:24:23.004Z,100265.72
2022-10-21T04:26:51.246Z,100269.22
2022-10-21T04:29:20.861Z,100268.44
2022-10-21T04:31:49.689Z,100269.19
2022-10-21T04:34:18.693Z,100268.31
2022-10-21T04:36:47.539Z,100258.56
2022-10-21T04:39:17.520Z,100249.22
2022-10-21T04:41:54.818Z,100241.56
2022-10-21T04:44:27.082Z,100235.59
2022-10-21T04:46:55.666Z,100241.53
2022-10-21T04:49:24.482Z,100229.63
2022-10-21T04:51:53.236Z,100229.63
2022-10-21T04:54:22.821Z,100224.53
2022-10-21T04:57:01.145Z,100227.72
2022-10-21T04:59:31.480Z,100234.66
2022-10-21T05:04:33.441Z,100236.34
2022-10-21T05:07:05.091Z,100246.59
2022-10-21T05:09:36.633Z,100240.69
2022-10-21T05:12:05.628Z,100237.31
2022-10-21T05:14:34.937Z,100237.16
2022-10-21T05:17:03.176Z,100234.75
2022-10-21T05:19:33.939Z,100225.19
2022-10-21T05:22:02.418Z,100229.63
2022-10-21T05:24:33.307Z,100226.94
2022-10-21T05:27:05.765Z,100233.91
2022-10-21T05:29:41.292Z,100239.06
2022-10-21T05:32:09.784Z,100238.34
2022-10-21T05:34:42.719Z,100233.94
2022-10-21T05:37:11.246Z,100239.12
2022-10-21T05:42:15.766Z,100250.19
2022-10-21T05:44:44.220Z,100251.16
2022-10-21T05:47:13.386Z,100236.59
2022-10-21T05:49:44.364Z,100225.41
2022-10-21T05:52:12.932Z,100222.72
2022-10-21T05:54:45.304Z,100209.00
2022-10-21T05:57:15.853Z,100223.66
2022-10-21T05:59:53.467Z,100242.53
2022-10-21T06:02:24.976Z,100259.12
2022-10-21T06:04:57.724Z,100273.69
2022-10-21T06:07:26.390Z,100260.94
2022-10-21T06:10:04.927Z,100270.38
2022-10-21T06:12:35.253Z,100284.13
2022-10-21T06:15:05.017Z,100287.56
2022-10-21T06:17:35.888Z,100285.91
2022-10-21T06:20:07.106Z,100278.22
2022-10-21T06:22:36.341Z,100272.19
2022-10-21T06:25:05.449Z,100279.03
2022-10-21T06:27:38.515Z,100279.12
2022-10-21T06:30:07.715Z,100277.41
2022-10-21T06:32:39.488Z,100285.19
2022-10-21T06:35:08.292Z,100296.44
2022-10-21T06:37:37.678Z,100306.75
2022-10-21T06:40:08.766Z,100299.84
2022-10-21T06:42:46.446Z,100289.47
2022-10-21T06:45:14.992Z,100285.22
2022-10-21T06:47:44.257Z,100280.91
2022-10-21T06:50:14.268Z,100277.47
2022-10-21T06:52:46.376Z,100275.66
2022-10-21T06:55:14.938Z,100272.28
2022-10-21T06:57:47.321Z,100261.94
2022-10-21T07:00:16.808Z,100264.53
2022-10-21T07:02:51.699Z,100274.06
2022-10-21T07:05:20.291Z,100274.91
2022-10-21T07:07:49.490Z,100269.75
2022-10-21T07:10:18.068Z,100270.59
2022-10-21T07:12:53.024Z,100269.72
2022-10-21T07:15:23.198Z,100262.84
2022-10-21T07:17:53.103Z,100271.47
2022-10-21T07:20:22.522Z,100271.47
2022-10-21T07:22:54.459Z,100279.22
2022-10-21T07:25:23.284Z,100279.25
2022-10-21T07:27:54.414Z,100277.50
2022-10-21T07:30:24.765Z,100280.94
2022-10-21T07:32:58.656Z,100284.37
2022-10-21T07:35:27.501Z,100292.13
2022-10-21T07:37:59.609Z,100295.59
2022-10-21T07:40:29.345Z,100297.28
2022-10-21T07:43:00.795Z,100287.78
2022-10-21T07:45:30.720Z,100288.69
2022-10-21T07:48:01.169Z,100276.44
2022-10-21T07:50:29.707Z,100271.31
2022-10-21T07:53:11.020Z,100266.91
2022-10-21T07:55:47.472Z,100266.00
2022-10-21T07:58:15.760Z,100263.44
2022-10-21T08:00:46.352Z,100253.87
2022-10-21T08:03:15.217Z,100246.19
2022-10-21T08:05:47.913Z,100244.37
2022-10-21T08:08:17.433Z,100229.72
2022-10-21T08:13:19.868Z,100244.25
2022-10-21T08:15:54.313Z,100240.81
2022-10-21T08:18:23.169Z,100240.81
2022-10-21T08:20:51.435Z,100233.84
2022-10-21T08:23:20.459Z,100221.88
2022-10-21T08:25:50.067Z,100227.03
2022-10-21T08:28:20.996Z,100219.91
2022-10-21T08:30:55.982Z,100221.41
2022-10-21T08:33:25.919Z,100218.84
2022-10-21T08:35:56.093Z,100221.22
2022-10-21T08:38:24.481Z,100219.28
2022-10-21T08:40:55.603Z,100213.50
2022-10-21T08:43:24.966Z,100200.16
2022-10-21T08:45:59.449Z,100201.03
2022-10-21T08:48:39.867Z,100201.62
2022-10-21T08:51:12.197Z,100203.22
2022-10-21T08:53:44.770Z,100192.59
2022-10-21T08:56:18.611Z,100195.19
2022-10-21T08:58:52.279Z,100192.34
2022-10-21T09:01:25.986Z,100185.69
2022-10-21T09:03:58.502Z,100184.53
2022-10-21T09:06:28.253Z,100180.19
2022-10-21T09:09:02.222Z,100184.13
2022-10-21T09:11:37.255Z,100178.56
2022-10-21T09:14:16.248Z,100181.69
2022-10-21T09:16:48.446Z,100170.13
2022-10-21T09:19:23.857Z,100175.22
2022-10-21T09:22:05.891Z,100165.63
2022-10-21T09:24:46.746Z,100160.41
2022-10-21T09:27:31.805Z,100166.16
2022-10-21T09:30:14.011Z,100161.91
2022-10-21T09:32:42.638Z,100171.59
2022-10-21T09:35:15.387Z,100159.56
2022-10-21T09:37:46.129Z,100151.72
2022-10-21T09:40:16.646Z,100151.69
2022-10-21T09:42:50.226Z,100143.34
2022-10-21T09:45:30.327Z,100143.25
2022-10-21T09:47:59.663Z,100140.72
2022-10-21T09:53:06.902Z,100136.00
2022-10-21T09:55:39.222Z,100122.16
2022-10-21T09:58:12.735Z,100113.66
2022-10-21T10:00:42.182Z,100117.78
2022-10-21T10:03:17.168Z,100122.41
2022-10-21T10:05:48.879Z,100119.72
2022-10-21T10:08:28.271Z,100112.00
2022-10-21T10:11:02.541Z,100111.44
2022-10-21T10:13:32.305Z,100107.63
2022-10-21T10:16:14.171Z,100094.53
2022-10-21T10:18:43.395Z,100095.47
2022-10-21T10:21:13.227Z,100080.53
2022-10-21T10:23:45.091Z,100076.25
2022-10-21T10:26:22.240Z,100071.78
2022-10-21T10:28:53.509Z,100076.91
2022-10-21T10:31:31.487Z,100076.56
2022-10-21T10:34:03.919Z,100072.66
2022-10-21T10:36:37.638Z,100072.25
2022-10-21T10:39:10.866Z,100071.00
2022-10-21T10:41:40.676Z,100065.84
2022-10-21T10:44:15.472Z,100053.91
2022-10-21T10:46:44.035Z,100058.00
2022-10-21T10:49:21.649Z,100042.59
2022-10-21T10:52:05.319Z,100041.09
2022-10-21T10:54:39.002Z,100035.88
2022-10-21T10:57:07.915Z,100032.47
2022-10-21T10:59:41.824Z,100024.50
2022-10-21T11:02:22.435Z,100011.94
2022-10-21T11:07:36.846Z,100017.28
2022-10-21T11:10:08.819Z,100010.28
2022-10-21T11:12:38.649Z,100013.87
2022-10-21T11:15:08.696Z,100012.00
2022-10-21T11:17:38.969Z,100004.78
2022-10-21T11:20:08.696Z,100001.78
2022-10-21T11:22:42.022Z,100003.94
2022-10-21T11:25:17.622Z,99996.34
2022-10-21T11:28:15.148Z,99987.56
2022-10-21T11:30:48.842Z,99986.59
2022-10-21T11:33:19.207Z,99986.59
2022-10-21T11:35:53.043Z,99976.44
2022-10-21T11:38:28.757Z,99973.59
2022-10-21T11:41:02.158Z,99960.19
2022-10-21T11:43:33.875Z,99955.22
2022-10-21T11:46:09.950Z,99955.31
2022-10-21T11:48:43.132Z,99954.38
2022-10-21T11:51:16.634Z,99957.59
2022-10-21T11:53:51.955Z,99957.34
2022-10-21T11:56:23.354Z,99948.31
2022-10-21T11:59:01.606Z,99946.03
2022-10-21T12:01:31.386Z,99940.94
2022-10-21T12:04:08.141Z,99924.97
2022-10-21T12:06:39.487Z,99924.63
2022-10-21T12:09:18.471Z,99922.31
2022-10-21T12:11:48.110Z,99924.81
2022-10-21T12:14:26.553Z,99934.47
2022-10-21T12:17:09.412Z,99919.91
2022-10-21T12:19:40.207Z,99916.38
2022-10-21T12:22:08.778Z,99921.06
2022-10-21T12:24:43.470Z,99926.66
2022-10-21T12:27:23.091Z,99922.06
2022-10-21T12:29:56.462Z,99919.41
2022-10-21T12:32:33.299Z,99914.78
2022-10-21T12:35:10.199Z,99913.69
2022-10-21T12:38:00.749Z,99904.19
2022-10-21T12:40:38.748Z,99908.84
2022-10-21T12:43:14.216Z,99903.66
2022-10-21T12:45:42.814Z,99905.28
2022-10-21T12:48:23.732Z,99901.41
2022-10-21T12:50:58.830Z,99885.44
2022-10-21T12:53:34.168Z,99883.28
2022-10-21T12:56:08.320Z,99875.72
2022-10-21T12:58:41.708Z,99886.19
2022-10-21T13:01:35.918Z,99881.72
2022-10-21T13:04:10.554Z,99875.78
2022-10-21T13:06:49.442Z,99883.47
2022-10-21T13:09:35.175Z,99886.22
2022-10-21T13:12:07.092Z,99879.47
2022-10-21T13:14:45.495Z,99878.69
2022-10-21T13:17:26.512Z,99869.13
2022-10-21T13:19:57.636Z,99868.69
2022-10-21T13:22:38.520Z,99866.34
2022-10-21T13:25:17.943Z,99867.62
2022-10-21T13:27:53.215Z,99854.22
2022-10-21T13:30:30.854Z,99851.88
2022-10-21T13:33:02.091Z,99844.81
2022-10-21T13:35:32.558Z,99850.56
2022-10-21T13:38:08.162Z,99852.09
2022-10-21T13:40:38.399Z,99845.19
2022-10-21T13:43:09.818Z,99845.69
2022-10-21T13:45:39.056Z,99844.47
2022-10-21T13:48:13.506Z,99837.12
2022-10-21T13:50:50.455Z,99837.00
2022-10-21T13:53:26.231Z,99840.66
2022-10-21T13:55:58.734Z,99833.13
2022-10-21T13:58:34.408Z,99835.47
2022-10-21T14:01:13.636Z,99826.97
2022-10-21T14:03:45.597Z,99822.41
2022-10-21T14:06:17.774Z,99814.22
2022-10-21T14:08:47.461Z,99819.34
2022-10-21T14:11:19.366Z,99818.56
2022-10-21T14:13:50.669Z,99821.00
2022-10-21T14:16:23.934Z,99814.91
2022-10-21T14:18:52.498Z,99812.00
2022-10-21T14:21:22.982Z,99809.25
2022-10-21T14:23:51.628Z,99810.31
2022-10-21T14:26:27.968Z,99807.94
2022-10-21T14:28:57.872Z,99803.28
2022-10-21T14:31:28.878Z,99801.78
2022-10-21T14:33:57.499Z,99799.22
2022-10-21T14:36:28.687Z,99802.28
2022-10-21T14:39:04.140Z,99802.81
2022-10-21T14:41:48.507Z,99804.03
2022-10-21T14:44:22.463Z,99795.84
2022-10-21T14:46:54.058Z,99801.69
2022-10-21T14:49:23.679Z,99798.75
2022-10-21T14:51:53.500Z,99793.47
2022-10-21T14:54:25.820Z,99797.03
2022-10-21T14:56:54.599Z,99801.91
2022-10-21T14:59:25.637Z,99800.94
2022-10-21T15:01:56.093Z,99804.50
2022-10-21T15:04:45.564Z,99796.34
2022-10-21T15:07:18.141Z,99798.00
2022-10-21T15:09:59.436Z,99796.34
2022-10-21T15:12:33.178Z,99793.69
2022-10-21T15:15:07.565Z,99783.84
2022-10-21T15:17:37.937Z,99767.53
2022-10-21T15:20:14.754Z,99769.41
2022-10-21T15:22:43.981Z,99765.19
2022-10-21T15:25:15.758Z,99767.00
2022-10-21T15:27:45.636Z,99777.06
2022-10-21T15:30:18.914Z,99774.41
2022-10-21T15:32:55.394Z,99774.19
2022-10-21T15:35:25.497Z,99772.97
2022-10-21T15:37:56.923Z,99773.59
2022-10-21T15:40:25.501Z,99778.69
2022-10-21T15:42:57.054Z,99771.63
2022-10-21T15:45:25.439Z,99769.03
2022-10-21T15:47:57.049Z,99769.53
2022-10-21T15:50:27.557Z,99772.44
2022-10-21T15:52:59.558Z,99768.31
2022-10-21T15:55:30.547Z,99768.22
2022-10-21T15:57:59.099Z,99764.53
2022-10-21T16:00:27.430Z,99763.00
2022-10-21T16:03:01.545Z,99748.66
2022-10-21T16:05:32.578Z,99757.19
2022-10-21T16:08:02.794Z,99755.41
2022-10-21T16:10:32.375Z,99763.03
2022-10-21T16:13:03.147Z,99770.66
2022-10-21T16:15:31.420Z,99770.38
2022-10-21T16:18:04.396Z,99772.94
2022-10-21T16:20:36.356Z,99771.22
2022-10-21T16:23:06.006Z,99764.19
2022-10-21T16:25:35.027Z,99771.22
2022-10-21T16:28:05.331Z,99776.62
2022-10-21T16:30:34.854Z,99775.47
2022-10-21T16:33:03.722Z,99782.50
2022-10-21T16:35:34.292Z,99770.66
2022-10-21T16:38:06.642Z,99776.72
2022-10-21T16:40:37.211Z,99777.28
2022-10-21T16:43:13.189Z,99771.53
2022-10-21T16:45:42.444Z,99775.25
2022-10-21T16:48:12.571Z,99772.56
2022-10-21T16:53:41.284Z,99769.59
2022-10-21T16:56:09.721Z,99771.19
2022-10-21T16:58:47.537Z,99775.25
2022-10-21T17:01:24.779Z,99770.16
2022-10-21T17:03:54.020Z,99768.47
2022-10-21T17:06:24.949Z,99767.13
2022-10-21T17:08:54.584Z,99768.69
2022-10-21T17:11:24.176Z,99768.91
2022-10-21T17:13:53.094Z,99767.34
2022-10-21T17:16:21.994Z,99769.72
2022-10-21T17:18:51.303Z,99769.03
2022-10-21T17:21:26.628Z,99761.72
2022-10-21T17:23:57.331Z,99765.03
2022-10-21T17:26:30.306Z,99764.34
2022-10-21T17:29:00.298Z,99768.91
2022-10-21T17:31:31.153Z,99761.19
2022-10-21T17:34:02.143Z,99771.16
2022-10-21T17:36:32.080Z,99750.03
2022-10-21T17:39:04.057Z,99759.13
2022-10-21T17:41:32.764Z,99755.31
2022-10-21T17:44:01.947Z,99757.72
2022-10-21T17:46:31.928Z,99756.87
2022-10-21T17:49:01.769Z,99762.66
2022-10-21T17:51:36.292Z,99755.84
2022-10-21T17:54:08.200Z,99759.50
2022-10-21T17:56:37.034Z,99770.50
2022-10-21T17:59:06.092Z,99758.78
2022-10-21T18:01:38.724Z,99757.91
2022-10-21T18:04:07.986Z,99757.66
2022-10-21T18:06:40.999Z,99753.28
2022-10-21T18:09:11.782Z,99755.16
2022-10-21T18:11:41.374Z,99752.59
2022-10-21T18:14:10.436Z,99754.09
2022-10-21T18:16:45.999Z,99737.91
2022-10-21T18:19:15.222Z,99738.03
2022-10-21T18:21:45.335Z,99741.16
2022-10-21T18:24:15.390Z,99744.41
2022-10-21T18:26:45.573Z,99746.03
2022-10-21T18:29:15.621Z,99746.97
2022-10-21T18:31:47.434Z,99745.81
2022-10-21T18:34:16.126Z,99738.69
2022-10-21T18:36:48.928Z,99735.41
2022-10-21T18:39:19.036Z,99734.59
2022-10-21T18:41:49.595Z,99729.94
2022-10-21T18:44:18.654Z,99724.88
2022-10-21T18:46:55.269Z,99719.13
2022-10-21T18:49:26.446Z,99715.69
2022-10-21T18:51:55.441Z,99715.53
2022-10-21T18:54:25.423Z,99712.88
2022-10-21T18:56:54.852Z,99710.00
2022-10-21T18:59:23.795Z,99709.94
2022-10-21T19:01:57.353Z,99705.09
2022-10-21T19:04:27.353Z,99702.81
2022-10-21T19:06:59.189Z,99701.72
2022-10-21T19:09:30.223Z,99701.34
2022-10-21T19:12:04.411Z,99701.31
2022-10-21T19:14:35.170Z,99693.88
2022-10-21T19:17:05.510Z,99691.22
2022-10-21T19:19:39.366Z,99683.91
2022-10-21T19:22:08.640Z,99678.88
2022-10-21T19:24:44.069Z,99688.53
2022-10-21T19:27:14.505Z,99688.47
2022-10-21T19:29:45.552Z,99695.53
2022-10-21T19:32:15.887Z,99692.84
2022-10-21T19:34:45.171Z,99697.47
2022-10-21T19:37:14.876Z,99691.31
2022-10-21T19:39:46.503Z,99689.28
2022-10-21T19:42:17.149Z,99695.59
2022-10-21T19:44:47.499Z,99691.97
2022-10-21T19:47:16.497Z,99695.81
2022-10-21T19:49:50.810Z,99691.09
2022-10-21T19:52:33.092Z,99695.84
2022-10-21T19:55:02.048Z,99691.16
2022-10-21T19:57:35.570Z,99687.75
2022-10-21T20:00:05.460Z,99697.28
2022-10-21T20:02:41.260Z,99685.00
2022-10-21T20:05:10.605Z,99687.50
2022-10-21T20:07:41.770Z,99687.78
2022-10-21T20:10:19.028Z,99680.84
2022-10-21T20:12:50.005Z,99684.59
2022-10-21T20:15:20.508Z,99672.91
2022-10-21T20:17:49.156Z,99682.53
2022-10-21T20:20:18.060Z,99687.84
2022-10-21T20:22:50.266Z,99680.63
2022-10-21T20:25:25.385Z,99675.81
2022-10-21T20:27:56.276Z,99702.78
2022-10-21T20:30:24.777Z,99691.22
2022-10-21T20:32:54.022Z,99687.53
2022-10-21T20:35:23.342Z,99697.28
2022-10-21T20:37:53.751Z,99702.59
2022-10-21T20:40:22.611Z,99697.31
2022-10-21T20:42:55.589Z,99695.81
2022-10-21T20:45:30.830Z,99690.69
2022-10-21T20:48:01.147Z,99695.94
2022-10-21T20:50:30.675Z,99692.25
2022-10-21T20:52:59.231Z,99688.13
2022-10-21T20:55:30.845Z,99692.94
2022-10-21T21:00:30.275Z,99685.78
2022-10-21T21:03:02.281Z,99691.81
2022-10-21T21:05:38.159Z,99688.22
2022-10-21T21:08:07.728Z,99689.94
2022-10-21T21:10:46.122Z,99684.41
2022-10-21T21:13:20.703Z,99679.50
2022-10-21T21:15:50.991Z,99681.91
2022-10-21T21:18:19.852Z,99675.69
2022-10-21T21:20:49.003Z,99671.59
2022-10-21T21:23:18.695Z,99681.44
2022-10-21T21:25:48.105Z,99683.16
2022-10-21T21:28:21.910Z,99684.25
2022-10-21T21:30:54.892Z,99687.78
2022-10-21T21:33:25.557Z,99682.34
2022-10-21T21:35:56.229Z,99676.00
2022-10-21T21:38:25.725Z,99664.97
2022-10-21T21:40:55.382Z,99652.34
2022-10-21T21:43:27.929Z,99657.03
2022-10-21T21:46:00.915Z,99666.41
2022-10-21T21:48:33.143Z,99670.00
2022-10-21T21:51:02.566Z,99660.63
2022-10-21T21:53:31.506Z,99656.00
2022-10-21T21:56:03.292Z,99658.34
2022-10-21T21:58:35.390Z,99660.25
2022-10-21T22:01:14.632Z,99656.53
2022-10-21T22:03:43.535Z,99649.75
2022-10-21T22:06:13.758Z,99659.81
2022-10-21T22:08:44.870Z,99656.84
2022-10-21T22:11:17.326Z,99652.44
2022-10-21T22:13:46.180Z,99654.41
2022-10-21T22:16:20.164Z,99663.72
2022-10-21T22:18:48.533Z,99664.09
2022-10-21T22:21:20.945Z,99672.13
2022-10-21T22:23:50.032Z,99670.38
2022-10-21T22:26:21.841Z,99668.31
2022-10-21T22:28:50.558Z,99665.91
2022-10-21T22:31:28.920Z,99672.87
2022-10-21T22:34:05.476Z,99675.69
2022-10-21T22:36:36.698Z,99670.75
2022-10-21T22:39:07.724Z,99670.00
2022-10-21T22:41:36.640Z,99666.28
2022-10-21T22:44:05.470Z,99659.63
2022-10-21T22:46:35.420Z,99650.41
2022-10-21T22:49:09.462Z,99647.53
2022-10-21T22:51:37.843Z,99648.88
2022-10-21T22:54:15.188Z,99649.41
2022-10-21T22:56:51.525Z,99645.47
2022-10-21T22:59:20.362Z,99650.06
2022-10-21T23:01:57.844Z,99648.06
2022-10-21T23:04:26.801Z,99642.84
2022-10-21T23:06:57.842Z,99646.09
2022-10-21T23:09:26.370Z,99654.66
2022-10-21T23:11:55.876Z,99644.81
2022-10-21T23:14:24.457Z,99641.72
2022-10-21T23:16:58.505Z,99648.47
2022-10-21T23:19:27.158Z,99651.19
2022-10-21T23:21:56.593Z,99650.47
2022-10-21T23:24:25.689Z,99650.47
2022-10-21T23:26:59.060Z,99643.91
2022-10-21T23:29:30.838Z,99630.63
2022-10-21T23:32:01.052Z,99627.09
2022-10-21T23:34:30.033Z,99627.63
2022-10-21T23:37:01.922Z,99629.63
2022-10-21T23:39:30.584Z,99627.94
2022-10-21T23:42:05.306Z,99635.78
2022-10-21T23:44:35.925Z,99637.50
2022-10-21T23:47:09.313Z,99643.56
2022-10-21T23:49:38.000Z,99640.16
2022-10-21T23:52:07.560Z,99649.00
2022-10-21T23:54:35.922Z,99650.59
2022-10-21T23:57:13.101Z,99641.16
2022-10-21T23:59:41.355Z,99652.81
